Time;durP1;ratioP1;P1;durP2;ratioP2;P2;SDS_P1;SDS_P2;PMS_P1;PMS_P2;Temp;Humidity;BMP_temperature;BMP_pressure;BME280_temperature;BME280_humidity;BME280_pressure;Samples;Min_cycle;Max_cycle;Signal;HPM_P1;HPM_P2
2023/05/05 00:07:58;;;;;;;28.70;15.60;;;;;;;9.53;56.34;99110.39;437497;1247;98693;-42
2023/05/05 00:18:02;;;;;;;27.20;15.70;;;;;;;9.47;56.81;99102.59;437311;1251;112970;-42
2023/05/05 00:28:06;;;;;;;29.50;16.30;;;;;;;9.43;57.29;99098.04;437423;1251;107703;-43
2023/05/05 00:38:09;;;;;;;31.50;15.20;;;;;;;9.21;57.55;99095.21;437348;1248;99228;-41
2023/05/05 00:58:19;;;;;;;26.60;14.80;;;;;;;8.65;58.27;99085.65;437187;1247;99218;-44
2023/05/05 01:08:26;;;;;;;25.00;12.50;;;;;;;8.43;58.68;99080.69;437516;1251;111485;-43
2023/05/05 01:18:33;;;;;;;20.30;11.80;;;;;;;8.41;59.09;99084.05;437238;1247;107498;-42
2023/05/05 01:28:52;;;;;;;20.60;13.00;;;;;;;8.32;59.43;99078.61;436426;1251;99316;-42
2023/05/05 01:38:56;;;;;;;23.20;15.20;;;;;;;8.18;60.20;99077.31;436329;1251;108594;-42
2023/05/05 01:49:01;;;;;;;26.40;14.50;;;;;;;8.06;60.78;99082.70;436522;1248;99232;-42
2023/05/05 02:09:12;;;;;;;21.60;10.30;;;;;;;7.51;61.46;99089.50;436316;1248;106668;-42
2023/05/05 02:19:18;;;;;;;20.70;12.30;;;;;;;7.47;62.08;99086.05;436399;1251;99225;-43
2023/05/05 02:29:21;;;;;;;28.30;15.20;;;;;;;7.65;62.92;99082.33;436524;1251;107891;-43
2023/05/05 02:39:30;;;;;;;31.80;17.10;;;;;;;7.76;63.20;99073.27;436472;1250;99086;-42
2023/05/05 02:49:33;;;;;;;38.60;20.50;;;;;;;7.52;63.41;99064.77;436556;1248;112517;-44
2023/05/05 02:59:48;;;;;;;38.80;19.60;;;;;;;7.45;63.86;99068.52;436308;1247;109362;-42
2023/05/05 03:09:55;;;;;;;26.90;14.80;;;;;;;7.55;64.37;99057.56;436525;1251;99265;-45
2023/05/05 03:19:59;;;;;;;31.40;16.90;;;;;;;7.59;64.47;99044.38;436209;1248;108577;-42
2023/05/05 03:30:08;;;;;;;31.60;17.10;;;;;;;7.50;64.67;99045.94;436467;1251;98059;-42
2023/05/05 03:40:13;;;;;;;30.10;18.20;;;;;;;7.52;65.17;99051.73;436419;1251;110421;-41
2023/05/05 03:50:16;;;;;;;24.50;16.30;;;;;;;7.45;65.29;99055.36;436214;1251;108105;-41
2023/05/05 04:00:19;;;;;;;22.80;12.40;;;;;;;7.43;65.54;99059.08;436526;1261;99240;-42
2023/05/05 04:10:23;;;;;;;19.00;12.60;;;;;;;7.49;65.55;99060.63;436399;1251;107760;-42
2023/05/05 04:20:27;;;;;;;24.80;14.10;;;;;;;7.61;65.58;99071.61;436354;1251;98038;-41
2023/05/05 04:30:30;;;;;;;43.10;16.80;;;;;;;7.72;65.60;99074.36;436203;1248;113172;-42
2023/05/05 04:40:37;;;;;;;70.30;23.10;;;;;;;9.43;65.93;99084.50;436463;1251;107778;-43
2023/05/05 04:50:42;;;;;;;50.80;19.60;;;;;;;11.84;64.79;99086.48;436427;1247;99226;-43
2023/05/05 05:00:45;;;;;;;141.30;33.20;;;;;;;12.45;62.90;99090.33;436411;1248;107831;-42
2023/05/05 05:10:50;;;;;;;102.50;24.10;;;;;;;12.76;62.26;99091.87;436511;1248;99346;-42
2023/05/05 05:20:55;;;;;;;63.80;19.30;;;;;;;13.46;61.66;99092.66;436422;1251;115063;-42
2023/05/05 05:51:09;;;;;;;23.00;10.30;;;;;;;16.25;58.78;99096.94;436414;1251;108549;-43
2023/05/05 06:01:12;;;;;;;25.70;9.60;;;;;;;16.76;57.04;99104.85;436406;1247;98949;-42
2023/05/05 06:11:16;;;;;;;22.70;8.50;;;;;;;17.45;56.24;99102.35;436394;1247;112873;-44
2023/05/05 06:21:20;;;;;;;10.00;5.40;;;;;;;18.19;54.68;99105.86;436495;1252;108358;-42
2023/05/05 06:31:24;;;;;;;8.80;5.00;;;;;;;19.01;52.69;99105.30;436444;1250;99208;-42
2023/05/05 06:41:28;;;;;;;13.90;5.70;;;;;;;19.97;50.96;99105.77;436531;1250;107787;-41
2023/05/05 06:51:32;;;;;;;7.50;5.40;;;;;;;20.03;48.39;99103.50;436416;1251;98264;-41
2023/05/05 07:01:36;;;;;;;11.80;4.70;;;;;;;19.83;47.30;99099.90;436415;1251;110866;-42
2023/05/05 07:11:39;;;;;;;13.40;4.80;;;;;;;20.26;45.99;99093.77;436442;1247;108861;-41
2023/05/05 07:21:43;;;;;;;5.80;4.00;;;;;;;20.21;44.49;99092.48;436357;1251;98132;-41
2023/05/05 07:31:47;;;;;;;10.10;4.10;;;;;;;20.13;43.75;99088.09;436422;1251;107684;-41
2023/05/05 07:41:50;;;;;;;8.30;4.40;;;;;;;19.57;42.00;99093.38;436470;1251;97974;-42
2023/05/05 07:51:55;;;;;;;7.40;3.30;;;;;;;19.35;41.12;99100.73;436522;1247;111512;-40
2023/05/05 08:01:58;;;;;;;4.90;3.80;;;;;;;19.51;41.42;99099.27;436531;1251;106932;-41
2023/05/05 08:12:03;;;;;;;7.50;3.60;;;;;;;19.59;41.17;99099.87;436389;1247;98325;-42
2023/05/05 08:22:06;;;;;;;3.50;3.00;;;;;;;19.55;39.82;99094.36;436515;1251;106896;-40
2023/05/05 08:32:10;;;;;;;10.20;3.90;;;;;;;19.05;38.74;99090.82;436537;1251;99266;-44
2023/05/05 08:42:14;;;;;;;4.00;2.70;;;;;;;19.20;38.86;99084.36;436372;1247;111629;-44
2023/05/05 09:12:45;;;;;;;5.10;2.70;;;;;;;19.60;36.07;99083.83;436529;1251;106707;-43
2023/05/05 09:22:49;;;;;;;4.50;2.60;;;;;;;19.07;34.73;99089.41;436593;1253;97985;-42
2023/05/05 09:32:55;;;;;;;14.60;3.30;;;;;;;19.11;35.66;99094.87;436333;1251;112466;-45
2023/05/05 09:43:01;;;;;;;3.30;3.00;;;;;;;19.46;35.60;99085.92;436387;1247;107682;-42
2023/05/05 09:53:06;;;;;;;5.70;4.10;;;;;;;19.40;35.83;99089.33;436511;1253;97982;-44
2023/05/05 10:03:09;;;;;;;9.00;3.60;;;;;;;19.16;35.23;99095.17;436434;1251;107465;-45
2023/05/05 10:13:14;;;;;;;5.20;3.90;;;;;;;19.05;34.51;99088.52;436476;1251;99279;-43
2023/05/05 10:23:21;;;;;;;2.60;2.40;;;;;;;19.33;34.68;99082.71;436587;1247;111151;-42
2023/05/05 10:33:26;;;;;;;4.30;2.80;;;;;;;19.39;34.48;99079.41;436475;1247;107674;-40
2023/05/05 10:43:36;;;;;;;5.00;2.80;;;;;;;19.22;33.86;99071.34;436514;1247;99238;-43
2023/05/05 10:53:43;;;;;;;3.80;2.40;;;;;;;19.28;34.14;99066.23;436576;1251;107464;-44
2023/05/05 11:03:48;;;;;;;5.40;2.30;;;;;;;19.36;34.35;99058.84;436454;1247;99262;-41
2023/05/05 11:14:24;;;;;;;5.10;3.10;;;;;;;19.74;34.28;99057.09;436449;1247;112378;-42
2023/05/05 11:34:32;;;;;;;4.30;2.60;;;;;;;20.19;34.28;99039.76;436654;1250;99233;-45
2023/05/05 11:44:37;;;;;;;2.90;2.60;;;;;;;20.04;33.85;99037.36;436375;1251;107922;-43
2023/05/05 11:54:46;;;;;;;2.70;2.40;;;;;;;20.18;33.94;99027.00;436527;1247;99221;-50
2023/05/05 12:04:51;;;;;;;2.50;2.20;;;;;;;19.98;32.86;99026.57;436323;1253;111922;-42
2023/05/05 12:14:55;;;;;;;3.30;2.40;;;;;;;19.84;33.42;99018.10;436460;1247;108846;-42
2023/05/05 12:25:01;;;;;;;3.60;2.80;;;;;;;19.99;32.40;99009.50;436299;1247;99239;-42
2023/05/05 12:35:07;;;;;;;3.80;2.40;;;;;;;20.00;32.28;99006.91;436473;1247;107915;-43
2023/05/05 12:45:17;;;;;;;3.00;2.20;;;;;;;20.05;32.28;99002.02;436480;1248;98030;-42
2023/05/05 12:55:20;;;;;;;5.70;2.40;;;;;;;19.96;32.48;98995.24;436575;1251;111889;-45
2023/05/05 13:05:30;;;;;;;5.10;3.50;;;;;;;20.16;32.22;98985.56;436348;1247;106774;-42
2023/05/05 13:15:35;;;;;;;7.50;2.30;;;;;;;20.11;32.40;98973.20;436600;1251;98858;-43
2023/05/05 13:25:39;;;;;;;8.60;2.40;;;;;;;20.31;32.07;98963.98;436669;1250;110137;-44
2023/05/05 13:35:43;;;;;;;7.20;1.80;;;;;;;20.18;31.56;98954.35;436441;1247;99221;-41
2023/05/05 13:45:47;;;;;;;7.10;2.00;;;;;;;20.03;31.06;98945.58;436580;1247;112787;-41
2023/05/05 13:55:50;;;;;;;3.00;2.40;;;;;;;19.84;31.33;98939.08;436991;1248;108568;-42
2023/05/05 14:05:54;;;;;;;5.40;2.60;;;;;;;20.06;31.76;98926.23;436299;1253;98506;-43
2023/05/05 14:15:58;;;;;;;4.90;2.20;;;;;;;20.05;30.86;98926.28;435842;1251;108539;-43
2023/05/05 14:26:02;;;;;;;3.30;1.90;;;;;;;20.00;31.17;98926.02;436589;1252;98720;-43
2023/05/05 14:36:06;;;;;;;3.60;2.40;;;;;;;19.94;31.46;98927.25;437029;1247;112038;-42
2023/05/05 14:46:10;;;;;;;5.20;2.70;;;;;;;19.94;31.70;98926.55;437387;1248;106674;-46
2023/05/05 14:56:14;;;;;;;4.60;3.00;;;;;;;19.80;31.89;98919.55;436465;1249;99208;-41
2023/05/05 15:16:23;;;;;;;7.20;2.20;;;;;;;19.77;31.82;98920.55;436459;1253;98835;-43
2023/05/05 15:26:30;;;;;;;5.00;1.60;;;;;;;19.67;31.45;98912.70;436373;1254;111032;-43
2023/05/05 15:36:33;;;;;;;3.80;1.80;;;;;;;19.48;31.16;98908.86;436376;1247;108314;-44
2023/05/05 15:46:38;;;;;;;3.40;2.10;;;;;;;19.33;31.36;98900.33;436154;1248;415342;-42
2023/05/05 15:56:41;;;;;;;4.60;2.10;;;;;;;19.13;31.75;98899.19;436430;1248;108564;-42
2023/05/05 16:06:45;;;;;;;2.70;2.00;;;;;;;19.01;31.89;98889.95;436262;1248;97989;-44
2023/05/05 16:16:49;;;;;;;3.60;2.00;;;;;;;18.91;32.09;98886.70;436434;1252;111757;-44
2023/05/05 16:26:53;;;;;;;2.00;1.70;;;;;;;18.80;32.46;98894.36;436226;1248;108428;-44
2023/05/05 16:36:57;;;;;;;4.90;2.10;;;;;;;18.65;33.04;98902.52;436410;1248;97988;-43
2023/05/05 16:47:03;;;;;;;8.10;2.50;;;;;;;18.39;33.50;98893.78;436358;1247;109425;-42
2023/05/05 16:57:11;;;;;;;4.30;2.10;;;;;;;18.17;33.84;98890.64;436292;1253;99224;-42
2023/05/05 17:07:15;;;;;;;4.50;2.50;;;;;;;18.10;34.02;98898.11;436214;1248;111299;-44
2023/05/05 17:17:19;;;;;;;8.60;2.80;;;;;;;18.02;34.52;98905.88;436267;1251;108230;-43
2023/05/05 17:27:23;;;;;;;4.50;3.00;;;;;;;17.85;34.60;98903.66;436430;1251;99642;-42
2023/05/05 17:37:28;;;;;;;6.90;3.90;;;;;;;17.60;35.06;98906.77;436191;1253;108483;-43
2023/05/05 17:47:32;;;;;;;11.80;3.70;;;;;;;17.33;35.65;98907.66;436366;1253;97930;-42
2023/05/05 17:57:35;;;;;;;7.50;3.80;;;;;;;16.99;36.07;98904.11;436315;1248;112026;-42
2023/05/05 18:07:39;;;;;;;8.50;5.80;;;;;;;16.57;36.70;98908.41;436192;1252;108531;-43
2023/05/05 18:17:43;;;;;;;8.30;5.00;;;;;;;16.09;37.29;98912.70;436526;1247;99234;-42
2023/05/05 18:27:51;;;;;;;13.90;6.30;;;;;;;15.73;38.12;98912.80;436485;1253;107771;-43
2023/05/05 18:37:55;;;;;;;13.10;6.50;;;;;;;15.37;38.72;98920.11;436128;1251;99218;-43
2023/05/05 18:47:58;;;;;;;25.90;14.60;;;;;;;15.07;39.79;98938.84;436441;1248;112284;-43
2023/05/05 18:58:02;;;;;;;22.90;10.50;;;;;;;14.76;40.41;98954.52;436304;1261;106532;-43
2023/05/05 19:08:10;;;;;;;8.50;5.20;;;;;;;14.47;41.12;98956.61;436468;1247;99132;-42
2023/05/05 19:18:13;;;;;;;7.00;5.70;;;;;;;14.26;41.78;98955.58;436264;1254;107616;-42
2023/05/05 19:38:21;;;;;;;8.80;5.20;;;;;;;13.94;43.06;98961.45;436208;1261;112903;-45
2023/05/05 19:48:25;;;;;;;9.90;5.00;;;;;;;13.82;43.63;98965.52;436375;1252;107728;-44
2023/05/05 19:58:30;;;;;;;13.10;5.10;;;;;;;13.65;43.99;98967.54;436454;1247;100917;-42
2023/05/05 20:28:41;;;;;;;9.70;4.90;;;;;;;13.23;45.53;98970.63;436407;1253;113679;-41
2023/05/05 20:38:48;;;;;;;7.90;5.90;;;;;;;13.02;45.81;98964.06;436296;1254;108059;-43
2023/05/05 20:48:52;;;;;;;13.50;5.40;;;;;;;12.75;46.15;98973.93;436314;1248;99283;-43
2023/05/05 20:58:55;;;;;;;9.40;4.80;;;;;;;12.51;46.87;98976.64;436325;1261;108235;-42
2023/05/05 21:09:03;;;;;;;11.60;6.30;;;;;;;12.31;47.66;98984.11;436296;1261;99205;-41
2023/05/05 21:19:08;;;;;;;10.60;5.80;;;;;;;12.13;48.19;98975.06;436316;1253;112178;-42
2023/05/05 21:29:12;;;;;;;8.40;6.60;;;;;;;11.92;48.86;98963.92;436256;1261;107363;-41
2023/05/05 21:39:16;;;;;;;11.10;5.30;;;;;;;11.73;49.21;98958.77;436287;1251;98286;-43
2023/05/05 21:49:19;;;;;;;9.10;5.50;;;;;;;11.54;50.07;98957.05;436285;1261;108401;-42
2023/05/05 21:59:27;;;;;;;9.10;5.90;;;;;;;11.35;51.01;98952.98;436385;1261;99116;-42
2023/05/05 22:09:30;;;;;;;9.30;5.90;;;;;;;11.21;51.36;98945.26;436264;1255;112021;-41
2023/05/05 22:19:35;;;;;;;9.70;5.90;;;;;;;11.02;51.86;98944.94;436271;1255;108910;-42
2023/05/05 22:29:39;;;;;;;9.40;5.60;;;;;;;10.85;52.31;98945.86;436518;1247;98813;-43
2023/05/05 22:39:43;;;;;;;11.60;6.00;;;;;;;10.71;53.07;98941.33;436196;1252;107519;-42
2023/05/05 22:49:47;;;;;;;11.00;5.80;;;;;;;10.61;53.99;98933.05;436220;1261;99237;-41
2023/05/05 22:59:51;;;;;;;11.50;6.10;;;;;;;10.52;55.07;98915.33;436440;1248;110775;-43
2023/05/05 23:09:55;;;;;;;13.00;6.30;;;;;;;10.37;55.57;98917.13;436228;1254;110438;-42
2023/05/05 23:20:01;;;;;;;10.70;6.60;;;;;;;10.22;56.12;98921.43;436326;1248;99211;-41
2023/05/05 23:30:06;;;;;;;9.90;5.70;;;;;;;10.12;56.61;98925.56;436263;1248;107097;-41
2023/05/05 23:40:10;;;;;;;13.40;6.20;;;;;;;10.09;57.17;98931.02;436198;1251;99214;-42
2023/05/05 23:50:13;;;;;;;11.10;6.40;;;;;;;9.93;57.70;98908.30;436539;1251;110936;-41
